createdAt,value
2019-04-20T00:00:52.889Z,15.3
2019-04-20T00:01:50.256Z,15.3
2019-04-20T00:02:53.240Z,15.2
2019-04-20T00:03:50.530Z,15.2
2019-04-20T00:04:49.480Z,15.3
2019-04-20T00:05:49.324Z,15.2
2019-04-20T00:06:51.577Z,15.2
2019-04-20T00:07:50.157Z,15.1
2019-04-20T00:09:56.210Z,15.1
2019-04-20T00:10:56.849Z,15.1
2019-04-20T00:12:01.432Z,15.1
2019-04-20T00:13:01.900Z,15.1
2019-04-20T00:13:54.765Z,15.1
2019-04-20T00:14:50.014Z,15.2
2019-04-20T00:15:51.236Z,15.2
2019-04-20T00:16:50.537Z,15.2
2019-04-20T00:17:53.789Z,15.1
2019-04-20T00:18:53.725Z,15.1
2019-04-20T00:19:52.674Z,15
2019-04-20T00:20:57.405Z,15
2019-04-20T00:21:55.200Z,15.1
2019-04-20T00:22:53.281Z,15
2019-04-20T00:23:51.722Z,14.9
2019-04-20T00:24:56.676Z,14.9
2019-04-20T00:26:02.569Z,14.9
2019-04-20T00:27:08.330Z,15
2019-04-20T00:28:11.684Z,14.9
2019-04-20T00:29:05.391Z,15
2019-04-20T00:30:06.453Z,15.1
2019-04-20T00:31:09.012Z,15.1
2019-04-20T00:32:02.382Z,15
2019-04-20T00:33:01.674Z,15.1
2019-04-20T00:34:02.063Z,15.1
2019-04-20T00:34:52.293Z,15
2019-04-20T00:35:51.079Z,15
2019-04-20T00:36:51.916Z,15.1
2019-04-20T00:37:51.265Z,15.1
2019-04-20T00:38:55.022Z,15
2019-04-20T00:39:51.328Z,14.9
2019-04-20T00:40:58.221Z,15
2019-04-20T00:41:58.668Z,15
2019-04-20T00:42:54.862Z,15
2019-04-20T00:43:51.588Z,15
2019-04-20T00:45:00.534Z,14.9
2019-04-20T00:46:01.002Z,14.9
2019-04-20T00:47:04.196Z,14.8
2019-04-20T00:47:59.083Z,14.8
2019-04-20T00:48:58.898Z,14.6
2019-04-20T00:51:03.384Z,14.9
2019-04-20T00:52:18.405Z,14.9
2019-04-20T00:53:03.004Z,14.9
2019-04-20T00:53:55.339Z,14.7
2019-04-20T00:54:52.201Z,14.8
2019-04-20T00:55:52.939Z,14.8
2019-04-20T00:57:05.666Z,14.7
2019-04-20T00:57:58.333Z,14.7
2019-04-20T00:59:07.952Z,14.8
2019-04-20T01:00:10.827Z,14.7
2019-04-20T01:01:12.621Z,14.7
2019-04-20T01:02:12.463Z,14.6
2019-04-20T01:03:09.418Z,14.6
2019-04-20T01:04:14.672Z,14.6
2019-04-20T01:05:10.547Z,14.6
2019-04-20T01:06:10.721Z,14.7
2019-04-20T01:07:04.492Z,14.7
2019-04-20T01:07:56.287Z,14.7
2019-04-20T01:08:53.076Z,14.7
2019-04-20T01:09:54.181Z,14.5
2019-04-20T01:10:56.398Z,14.5
2019-04-20T01:11:54.446Z,14.7
2019-04-20T01:13:01.051Z,14.5
2019-04-20T01:13:58.789Z,14.5
2019-04-20T01:14:57.220Z,14.4
2019-04-20T01:15:58.668Z,14.5
2019-04-20T01:16:58.651Z,14.5
2019-04-20T01:17:53.950Z,14.5
2019-04-20T01:18:53.773Z,14.5
2019-04-20T01:19:54.064Z,14.5
2019-04-20T01:20:53.719Z,14.5
2019-04-20T01:21:59.573Z,14.5
2019-04-20T01:22:59.989Z,14.5
2019-04-20T01:23:58.208Z,14.6
2019-04-20T01:24:54.997Z,14.6
2019-04-20T01:25:58.217Z,14.7
2019-04-20T01:26:57.935Z,14.7
2019-04-20T01:28:07.582Z,14.6
2019-04-20T01:29:05.981Z,14.5
2019-04-20T01:31:04.957Z,14.5
2019-04-20T01:32:07.625Z,14.5
2019-04-20T01:33:03.328Z,14.5
2019-04-20T01:34:02.915Z,14.5
2019-04-20T01:35:04.385Z,14.5
2019-04-20T01:36:11.293Z,14.5
2019-04-20T01:37:09.162Z,14.6
2019-04-20T01:38:11.150Z,14.5
2019-04-20T01:39:07.381Z,14.4
2019-04-20T01:39:58.554Z,14.3
2019-04-20T01:40:54.993Z,14.3
2019-04-20T01:41:56.062Z,14.3
2019-04-20T01:42:55.302Z,14.4
2019-04-20T01:43:56.075Z,14.4
2019-04-20T01:44:56.979Z,14.5
2019-04-20T01:46:01.040Z,14.4
2019-04-20T01:46:58.617Z,14.4
2019-04-20T01:47:58.191Z,14.3
2019-04-20T01:48:59.044Z,14.3
2019-04-20T01:50:03.255Z,14.2
2019-04-20T01:51:03.657Z,14.2
2019-04-20T01:52:03.654Z,14.3
2019-04-20T01:53:05.463Z,14.3
2019-04-20T01:55:15.574Z,14.4
2019-04-20T01:56:12.335Z,14.4
2019-04-20T01:57:04.576Z,14.2
2019-04-20T01:58:11.255Z,14.3
2019-04-20T01:59:19.396Z,14.3
2019-04-20T02:00:05.921Z,14.4
2019-04-20T02:02:02.976Z,14.3
2019-04-20T02:02:59.186Z,14.3
2019-04-20T02:03:58.764Z,14.3
2019-04-20T02:05:04.367Z,14.3
2019-04-20T02:06:03.235Z,14.2
2019-04-20T02:06:59.647Z,14.3
2019-04-20T02:07:57.383Z,14.3
2019-04-20T02:08:59.064Z,14.3
2019-04-20T02:10:01.578Z,14.3
2019-04-20T02:11:00.270Z,14.4
2019-04-20T02:12:04.716Z,14.4
2019-04-20T02:13:00.107Z,14.4
2019-04-20T02:14:02.156Z,14.2
2019-04-20T02:15:00.990Z,14
2019-04-20T02:16:01.475Z,14
2019-04-20T02:17:07.310Z,14.1
2019-04-20T02:18:07.342Z,14
2019-04-20T02:19:13.036Z,14.2
2019-04-20T02:20:15.430Z,14.2
2019-04-20T02:21:14.998Z,14.1
2019-04-20T02:22:09.579Z,14.1
2019-04-20T02:23:10.402Z,14
2019-04-20T02:24:01.150Z,14.1
2019-04-20T02:24:57.329Z,14.1
2019-04-20T02:25:58.708Z,14.1
2019-04-20T02:26:57.877Z,14.2
2019-04-20T02:28:14.449Z,14.1
2019-04-20T02:29:23.454Z,14
2019-04-20T02:31:32.178Z,14
2019-04-20T02:32:26.189Z,14
2019-04-20T02:34:31.357Z,14.2
2019-04-20T02:35:23.729Z,14.1
2019-04-20T02:36:40.017Z,14
2019-04-20T02:37:35.594Z,13.9
2019-04-20T02:38:35.879Z,14
2019-04-20T02:41:34.732Z,14
2019-04-20T02:42:33.736Z,14
2019-04-20T02:43:37.338Z,14
2019-04-20T02:44:30.221Z,14
2019-04-20T02:45:32.459Z,14
2019-04-20T02:46:24.032Z,14.1
2019-04-20T02:48:29.478Z,14
2019-04-20T02:50:35.942Z,14.2
2019-04-20T02:51:32.806Z,14.1
2019-04-20T02:53:40.396Z,13.9
2019-04-20T02:54:33.821Z,14
2019-04-20T02:55:29.642Z,13.9
2019-04-20T02:57:30.300Z,14
2019-04-20T02:58:30.960Z,13.9
2019-04-20T02:59:58.576Z,13.9
2019-04-20T03:00:23.481Z,14
2019-04-20T03:01:19.958Z,13.8
2019-04-20T03:03:13.345Z,13.7
2019-04-20T03:04:03.255Z,13.6
2019-04-20T03:05:12.064Z,13.5
2019-04-20T03:06:13.230Z,13.5
2019-04-20T03:07:14.760Z,13.5
2019-04-20T03:08:17.201Z,13.5
2019-04-20T03:09:19.679Z,13.5
2019-04-20T03:10:16.214Z,13.6
2019-04-20T03:11:14.486Z,13.6
2019-04-20T03:12:23.218Z,13.5
2019-04-20T03:13:18.119Z,13.5
2019-04-20T03:14:17.277Z,13.6
2019-04-20T03:15:21.661Z,13.6
2019-04-20T03:16:20.340Z,13.6
2019-04-20T03:17:26.707Z,13.4
2019-04-20T03:18:19.035Z,13.6
2019-04-20T03:19:11.621Z,13.6
2019-04-20T03:20:21.985Z,13.5
2019-04-20T03:21:24.412Z,13.6
2019-04-20T03:22:51.018Z,13.5
2019-04-20T03:24:26.428Z,13.6
2019-04-20T03:25:22.090Z,13.6
2019-04-20T03:26:20.812Z,13.5
2019-04-20T03:27:18.218Z,13.4
2019-04-20T03:28:18.097Z,13.5
2019-04-20T03:29:12.616Z,13.4
2019-04-20T03:31:03.684Z,13.5
2019-04-20T03:31:40.779Z,13.5
2019-04-20T03:32:49.568Z,13.5
2019-04-20T03:33:41.101Z,13.5
2019-04-20T03:34:37.376Z,13.5
2019-04-20T03:35:22.014Z,13.5
2019-04-20T03:36:24.973Z,13.2
2019-04-20T03:37:26.504Z,13.3
2019-04-20T03:38:19.616Z,13.4
2019-04-20T03:39:21.791Z,13.3
2019-04-20T03:40:17.289Z,13.4
2019-04-20T03:41:13.791Z,13.5
2019-04-20T03:42:02.259Z,13.5
2019-04-20T03:43:02.486Z,13.5
2019-04-20T03:44:08.743Z,13.5
2019-04-20T03:45:07.469Z,13.5
2019-04-20T03:46:07.465Z,13.4
2019-04-20T03:47:05.150Z,13.5
2019-04-20T03:48:12.039Z,13.4
2019-04-20T03:49:18.236Z,13.5
2019-04-20T03:50:23.857Z,13.5
2019-04-20T03:51:28.811Z,13.6
2019-04-20T03:52:23.225Z,13.4
2019-04-20T03:53:12.611Z,13.5
2019-04-20T03:54:13.033Z,13.5
2019-04-20T03:55:19.709Z,13.4
2019-04-20T03:56:27.819Z,13.4
2019-04-20T03:57:26.193Z,13.3
2019-04-20T03:59:15.994Z,13.2
2019-04-20T04:00:21.382Z,13.1
2019-04-20T04:01:26.922Z,13.2
2019-04-20T04:02:29.530Z,13.1
2019-04-20T04:03:28.857Z,13.1
2019-04-20T04:04:14.761Z,13.2
2019-04-20T04:05:17.463Z,13.2
2019-04-20T04:06:14.697Z,13.2
2019-04-20T04:07:15.243Z,13.2
2019-04-20T04:08:14.553Z,13.3
2019-04-20T04:09:16.002Z,13.3
2019-04-20T04:10:15.665Z,13.2
2019-04-20T04:11:19.838Z,13
2019-04-20T04:12:15.186Z,13
2019-04-20T04:13:04.820Z,13.1
2019-04-20T04:14:04.903Z,13.1
2019-04-20T04:15:04.149Z,13.1
2019-04-20T04:16:08.521Z,13.1
2019-04-20T04:17:04.543Z,13.1
2019-04-20T04:18:10.361Z,13.2
2019-04-20T04:19:12.506Z,13.2
2019-04-20T04:20:10.053Z,13.2
2019-04-20T04:21:08.836Z,13.2
2019-04-20T04:22:17.957Z,13.1
2019-04-20T04:23:21.888Z,13.2
2019-04-20T04:24:16.869Z,13.1
2019-04-20T04:25:15.788Z,13.1
2019-04-20T04:26:21.501Z,13.1
2019-04-20T04:27:18.387Z,13.1
2019-04-20T04:28:18.377Z,13.1
2019-04-20T04:29:24.471Z,13.1
2019-04-20T04:30:17.967Z,13.1
2019-04-20T04:31:20.083Z,13.2
2019-04-20T04:32:39.246Z,13.3
2019-04-20T04:33:45.536Z,13.1
2019-04-20T04:34:17.198Z,13.1
2019-04-20T04:35:16.450Z,13.1
2019-04-20T04:36:20.625Z,13
2019-04-20T04:37:23.955Z,12.9
2019-04-20T04:38:26.961Z,13
2019-04-20T04:39:25.051Z,13
2019-04-20T04:40:30.800Z,13
2019-04-20T04:41:26.421Z,13
2019-04-20T04:42:27.508Z,12.9
2019-04-20T04:43:25.253Z,13
2019-04-20T04:44:19.057Z,12.8
2019-04-20T04:45:09.432Z,12.8
2019-04-20T04:46:05.884Z,12.7
2019-04-20T04:47:08.651Z,12.8
2019-04-20T04:48:12.595Z,12.8
2019-04-20T04:49:15.443Z,12.8
2019-04-20T04:50:12.927Z,12.9
2019-04-20T04:51:13.527Z,12.9
2019-04-20T04:52:11.063Z,12.9
2019-04-20T04:53:11.885Z,12.9
2019-04-20T04:54:16.162Z,13
2019-04-20T04:55:16.643Z,13
2019-04-20T04:56:11.535Z,13
2019-04-20T04:57:07.353Z,12.9
2019-04-20T04:58:06.833Z,12.8
2019-04-20T04:59:06.470Z,12.8
2019-04-20T05:00:10.138Z,13
2019-04-20T05:01:11.591Z,13
2019-04-20T05:02:07.610Z,13
2019-04-20T05:03:22.843Z,13.1
2019-04-20T05:04:24.628Z,13
2019-04-20T05:05:30.690Z,13
2019-04-20T05:06:21.844Z,13.1
2019-04-20T05:07:18.707Z,13
2019-04-20T05:08:15.315Z,13.1
2019-04-20T05:09:10.188Z,13.2
2019-04-20T05:10:07.655Z,13.2
2019-04-20T05:11:07.046Z,13.2
2019-04-20T05:12:13.871Z,13.2
2019-04-20T05:13:07.191Z,13.1
2019-04-20T05:14:10.573Z,13.2
2019-04-20T05:15:14.163Z,13.2
2019-04-20T05:16:18.814Z,13.2
2019-04-20T05:17:26.032Z,13.3
2019-04-20T05:18:34.241Z,13.3
2019-04-20T05:19:18.660Z,13.3
2019-04-20T05:20:21.368Z,13.4
2019-04-20T05:21:25.191Z,13.4
2019-04-20T05:22:24.098Z,13.4
2019-04-20T05:23:20.359Z,13.4
2019-04-20T05:24:25.395Z,13.3
2019-04-20T05:25:24.997Z,13.4
2019-04-20T05:26:29.772Z,13.4
2019-04-20T05:27:29.951Z,13.3
2019-04-20T05:28:20.106Z,13.4
2019-04-20T05:29:14.042Z,13.4
2019-04-20T05:30:08.120Z,13.4
2019-04-20T05:31:10.121Z,13.3
2019-04-20T05:32:14.576Z,13.3
2019-04-20T05:33:13.715Z,13.4
2019-04-20T05:34:30.364Z,13.5
2019-04-20T05:35:26.265Z,13.4
2019-04-20T05:36:27.861Z,13.3
2019-04-20T05:37:32.876Z,13.3
2019-04-20T05:38:35.289Z,13.4
2019-04-20T05:39:26.429Z,13.3
2019-04-20T05:40:32.398Z,13.3
2019-04-20T05:41:26.410Z,13.5
2019-04-20T05:42:29.840Z,13.6
2019-04-20T05:43:27.138Z,13.5
2019-04-20T05:44:20.798Z,13.4
2019-04-20T05:45:24.356Z,13.4
2019-04-20T05:46:30.491Z,13.3
2019-04-20T05:47:26.415Z,13.3
2019-04-20T05:48:24.620Z,13.4
2019-04-20T05:49:29.538Z,13.3
2019-04-20T05:50:30.092Z,13.3
2019-04-20T05:51:34.897Z,13.3
2019-04-20T05:52:41.808Z,13.2
2019-04-20T05:53:32.187Z,13.2
2019-04-20T05:54:32.100Z,13.2
2019-04-20T05:56:35.162Z,13.3
2019-04-20T05:57:29.995Z,13.4
2019-04-20T05:58:32.561Z,13.4
2019-04-20T05:59:25.767Z,13.5
2019-04-20T06:00:33.292Z,13.6
2019-04-20T06:01:31.626Z,13.6
2019-04-20T06:02:31.464Z,13.6
2019-04-20T06:03:25.712Z,13.7
2019-04-20T06:04:45.920Z,13.7
2019-04-20T06:05:34.503Z,13.8
2019-04-20T06:06:31.449Z,13.9
2019-04-20T06:07:29.295Z,14
2019-04-20T06:08:37.091Z,14
2019-04-20T06:09:27.363Z,14.1
2019-04-20T06:10:31.515Z,14.2
2019-04-20T06:11:31.399Z,14.3
2019-04-20T06:12:35.546Z,14.4
2019-04-20T06:13:21.868Z,14.5
2019-04-20T06:14:19.163Z,14.6
2019-04-20T06:15:23.277Z,14.7
2019-04-20T06:16:26.938Z,14.7
2019-04-20T06:17:24.985Z,14.8
2019-04-20T06:18:23.964Z,14.8
2019-04-20T06:19:43.623Z,14.6
2019-04-20T06:20:30.906Z,14.6
2019-04-20T06:21:57.230Z,14.7
2019-04-20T06:22:34.635Z,14.7
2019-04-20T06:23:38.351Z,14.8
2019-04-20T06:24:39.179Z,14.9
2019-04-20T06:26:43.293Z,14.9
2019-04-20T06:27:34.021Z,15.1
2019-04-20T06:28:29.552Z,15.1
2019-04-20T06:29:26.198Z,15.2
2019-04-20T06:30:27.890Z,15.2
2019-04-20T06:31:29.836Z,15.2
2019-04-20T06:32:32.891Z,15.2
2019-04-20T06:33:51.810Z,15.3
2019-04-20T06:34:53.244Z,15.4
2019-04-20T06:35:51.445Z,15.4
2019-04-20T06:36:37.863Z,15.5
2019-04-20T06:37:36.046Z,15.3
2019-04-20T06:39:36.920Z,15.3
2019-04-20T06:42:27.520Z,15.3
2019-04-20T06:43:40.293Z,15.5
2019-04-20T06:44:33.958Z,15.6
2019-04-20T06:45:32.937Z,15.7
2019-04-20T06:46:34.541Z,15.7
2019-04-20T06:47:29.037Z,15.6
2019-04-20T06:48:39.992Z,15.7
2019-04-20T06:49:32.706Z,15.7
2019-04-20T06:50:28.681Z,15.8
2019-04-20T06:51:34.111Z,15.8
2019-04-20T06:52:31.908Z,15.8
2019-04-20T06:53:36.224Z,15.9
2019-04-20T06:54:29.499Z,15.8
2019-04-20T06:55:37.924Z,15.8
2019-04-20T06:56:35.175Z,15.9
2019-04-20T06:57:34.448Z,16
2019-04-20T06:58:43.138Z,16.1
2019-04-20T06:59:37.420Z,16.1
2019-04-20T07:01:41.686Z,16.3
2019-04-20T07:02:35.388Z,16.3
2019-04-20T07:03:51.127Z,16.4
2019-04-20T07:04:41.383Z,16.3
2019-04-20T07:05:30.058Z,16.3
2019-04-20T07:06:50.067Z,16.5
2019-04-20T07:07:23.725Z,16.7
2019-04-20T07:09:52.336Z,16.6
2019-04-20T07:10:37.163Z,16.6
2019-04-20T07:11:33.881Z,16.7
2019-04-20T07:12:32.605Z,16.8
2019-04-20T07:13:25.898Z,16.7
2019-04-20T07:14:27.076Z,16.6
2019-04-20T07:15:28.371Z,16.7
2019-04-20T07:16:34.557Z,16.7
2019-04-20T07:17:45.174Z,16.7
2019-04-20T07:18:35.086Z,16.9
2019-04-20T07:19:28.460Z,17.1
2019-04-20T07:20:37.161Z,17.2
2019-04-20T07:21:43.502Z,17.3
2019-04-20T07:22:37.315Z,17.3
2019-04-20T07:23:53.225Z,17.3
2019-04-20T07:24:40.108Z,17.4
2019-04-20T07:25:36.947Z,17.4
2019-04-20T07:26:37.083Z,17.4
2019-04-20T07:27:34.822Z,17.4
2019-04-20T07:28:38.015Z,17.3
2019-04-20T07:29:33.120Z,17.4
2019-04-20T07:30:34.539Z,17.4
2019-04-20T07:31:29.147Z,17.4
2019-04-20T07:32:42.521Z,17.4
2019-04-20T07:33:39.138Z,17.3
2019-04-20T07:34:31.612Z,17.4
2019-04-20T07:35:35.289Z,17.4
2019-04-20T07:36:32.094Z,17.1
2019-04-20T07:38:30.553Z,17.3
2019-04-20T07:39:32.590Z,17.4
2019-04-20T07:40:35.345Z,17.4
2019-04-20T07:41:41.747Z,17.4
2019-04-20T07:42:40.399Z,17.6
2019-04-20T07:43:38.874Z,17.7
2019-04-20T07:44:34.094Z,17.4
2019-04-20T07:45:29.412Z,17.5
2019-04-20T07:46:46.702Z,17.4
2019-04-20T07:47:40.198Z,17.3
2019-04-20T07:49:34.228Z,17.6
2019-04-20T07:50:24.979Z,17.5
2019-04-20T07:51:22.973Z,17.7
2019-04-20T07:52:16.395Z,17.8
2019-04-20T07:53:29.063Z,17.9
2019-04-20T07:54:46.016Z,18
2019-04-20T07:56:36.874Z,18.1
2019-04-20T07:57:33.923Z,18
2019-04-20T07:58:28.236Z,18.1
2019-04-20T07:59:27.032Z,18.2
2019-04-20T08:01:44.720Z,18.1
2019-04-20T08:02:42.337Z,18.2
2019-04-20T08:04:32.226Z,18.7
2019-04-20T08:05:29.320Z,18.7
2019-04-20T08:06:24.713Z,18.6
2019-04-20T08:07:17.784Z,18.6
2019-04-20T08:09:25.587Z,18.4
2019-04-20T08:10:33.519Z,18.3
2019-04-20T08:11:37.790Z,18.1
2019-04-20T08:12:40.103Z,18.2
2019-04-20T08:13:56.684Z,18.2
2019-04-20T08:14:36.606Z,18.2
2019-04-20T08:15:48.721Z,18.1
2019-04-20T08:17:53.738Z,18.3
2019-04-20T08:18:39.814Z,18.3
2019-04-20T08:19:34.588Z,18.2
2019-04-20T08:20:38.322Z,18.2
2019-04-20T08:21:34.796Z,18.3
2019-04-20T08:22:40.776Z,18.3
2019-04-20T08:23:38.455Z,18.4
2019-04-20T08:24:36.814Z,18.6
2019-04-20T08:25:30.263Z,18.6
2019-04-20T08:26:25.042Z,18.9
2019-04-20T08:27:19.698Z,18.9
2019-04-20T08:28:24.883Z,18.9
2019-04-20T08:30:33.393Z,19
2019-04-20T08:31:32.157Z,19.1
2019-04-20T08:32:37.457Z,19.2
2019-04-20T08:33:40.105Z,19.4
2019-04-20T08:34:41.430Z,19.4
2019-04-20T08:35:38.761Z,19.3
2019-04-20T08:36:32.968Z,19.2
2019-04-20T08:37:30.908Z,19.4
2019-04-20T08:39:05.670Z,19.5
2019-04-20T08:40:37.116Z,19.5
2019-04-20T08:41:34.276Z,19.3
2019-04-20T08:44:53.557Z,19.7
2019-04-20T08:45:41.386Z,19.9
2019-04-20T08:46:40.170Z,19.8
2019-04-20T08:48:40.303Z,19.8
2019-04-20T08:49:40.853Z,19.8
2019-04-20T08:50:32.505Z,20
2019-04-20T08:51:41.257Z,19.9
2019-04-20T08:53:41.686Z,20.3
2019-04-20T08:54:33.821Z,20.3
2019-04-20T08:56:31.584Z,20.5
2019-04-20T08:57:20.084Z,20.5
2019-04-20T08:58:20.340Z,20.4
2019-04-20T08:59:20.984Z,20.6
2019-04-20T09:00:25.690Z,21
2019-04-20T09:01:21.397Z,20.9
2019-04-20T09:02:20.644Z,20.8
2019-04-20T09:03:27.252Z,20.8
2019-04-20T09:04:26.881Z,21.2
2019-04-20T09:05:30.129Z,21
2019-04-20T09:06:36.145Z,21
2019-04-20T09:07:25.071Z,21.1
2019-04-20T09:10:42.042Z,20.8
2019-04-20T09:11:41.302Z,20.8
2019-04-20T09:12:35.340Z,20.8
2019-04-20T09:13:29.872Z,20.8
2019-04-20T09:14:21.576Z,20.9
2019-04-20T09:15:21.188Z,21
2019-04-20T09:16:26.760Z,20.6
2019-04-20T09:17:27.025Z,20.8
2019-04-20T09:18:25.892Z,20.8
2019-04-20T09:19:29.747Z,20.8
2019-04-20T09:20:31.603Z,21.2
2019-04-20T09:21:28.441Z,21.3
2019-04-20T09:22:32.515Z,21.5
2019-04-20T09:23:36.155Z,21
2019-04-20T09:24:43.065Z,21
2019-04-20T09:26:36.927Z,20.8
2019-04-20T09:27:31.312Z,20.8
2019-04-20T09:28:28.348Z,21.2
2019-04-20T09:29:32.744Z,21.2
2019-04-20T09:30:31.850Z,20.8
2019-04-20T09:31:34.948Z,20.9
2019-04-20T09:33:39.721Z,20.8
2019-04-20T09:34:41.550Z,20.8
2019-04-20T09:35:36.969Z,20.9
2019-04-20T09:36:32.271Z,21.4
2019-04-20T09:37:36.680Z,21.8
2019-04-20T09:38:34.656Z,21.6
2019-04-20T09:39:30.233Z,21.6
2019-04-20T09:40:39.984Z,21.7
2019-04-20T09:41:39.336Z,21.7
2019-04-20T09:42:22.240Z,21.4
2019-04-20T09:43:22.270Z,21.6
2019-04-20T09:44:24.465Z,21.6
2019-04-20T09:45:30.935Z,21.7
2019-04-20T09:46:22.493Z,22.1
2019-04-20T09:47:27.301Z,22.5
2019-04-20T09:48:31.671Z,22.4
2019-04-20T09:49:35.202Z,22.4
2019-04-20T09:50:40.744Z,22.7
2019-04-20T09:51:39.646Z,22.7
2019-04-20T09:52:34.883Z,22.4
2019-04-20T09:53:35.564Z,22.5
2019-04-20T09:54:41.197Z,22.7
2019-04-20T09:55:33.455Z,22.7
2019-04-20T09:57:33.001Z,22.5
2019-04-20T09:58:33.657Z,22.6
2019-04-20T09:59:42.717Z,22.8
2019-04-20T10:00:36.805Z,23
2019-04-20T10:01:32.541Z,22.9
2019-04-20T10:02:28.075Z,22.7
2019-04-20T10:03:24.743Z,22.5
2019-04-20T10:04:23.889Z,22.6
2019-04-20T10:05:23.594Z,23.1
2019-04-20T10:06:27.154Z,23.7
2019-04-20T10:07:26.059Z,23.7
2019-04-20T10:08:23.934Z,23.6
2019-04-20T10:09:27.753Z,23.4
2019-04-20T10:10:31.253Z,23
2019-04-20T10:11:23.981Z,23.1
2019-04-20T10:12:24.290Z,23.6
2019-04-20T10:13:25.150Z,23.6
2019-04-20T10:14:24.803Z,23.9
2019-04-20T10:15:26.576Z,24
2019-04-20T10:16:24.271Z,23.6
2019-04-20T10:17:26.938Z,23.7
2019-04-20T10:18:25.622Z,24.2
2019-04-20T10:19:30.062Z,24
2019-04-20T10:20:30.893Z,24.2
2019-04-20T10:21:25.695Z,23.9
2019-04-20T10:22:24.648Z,23.5
2019-04-20T10:23:24.881Z,23.9
2019-04-20T10:24:24.733Z,23.8
2019-04-20T10:25:24.739Z,23.9
2019-04-20T10:26:24.811Z,23.7
2019-04-20T10:27:26.335Z,23.9
2019-04-20T10:28:25.598Z,23.8
2019-04-20T10:29:25.788Z,23.3
2019-04-20T10:30:26.042Z,23.1
2019-04-20T10:31:26.230Z,23.5
2019-04-20T10:32:33.002Z,24
2019-04-20T10:33:25.747Z,24.3
2019-04-20T10:34:26.309Z,24.3
2019-04-20T10:35:25.531Z,24.6
2019-04-20T10:36:25.677Z,24.5
2019-04-20T10:37:25.400Z,25
2019-04-20T10:38:25.598Z,25.3
2019-04-20T10:39:26.625Z,25.4
2019-04-20T10:40:37.496Z,25.2
2019-04-20T10:41:35.846Z,25.1
2019-04-20T10:42:26.025Z,24.9
2019-04-20T10:43:26.012Z,25
2019-04-20T10:44:27.136Z,24.8
2019-04-20T10:45:26.757Z,24.7
2019-04-20T10:46:26.876Z,24.5
2019-04-20T10:47:27.275Z,24.7
2019-04-20T10:48:26.924Z,25
2019-04-20T10:49:27.119Z,25.1
2019-04-20T10:50:27.132Z,25
2019-04-20T10:51:26.301Z,25
2019-04-20T10:52:27.730Z,25.2
2019-04-20T10:53:26.411Z,24.7
2019-04-20T10:54:26.714Z,24.2
2019-04-20T10:55:27.206Z,24.2
2019-04-20T10:56:27.509Z,23.9
2019-04-20T10:57:27.785Z,24.4
2019-04-20T10:58:27.434Z,24.3
2019-04-20T10:59:27.708Z,24.8
2019-04-20T11:00:27.820Z,25.1
2019-04-20T11:01:27.443Z,25.3
2019-04-20T11:02:27.729Z,25.8
2019-04-20T11:03:26.826Z,25.8
2019-04-20T11:04:26.875Z,25
2019-04-20T11:05:30.660Z,24.9
2019-04-20T11:06:26.986Z,25.4
2019-04-20T11:07:28.255Z,25.6
2019-04-20T11:08:27.089Z,25.9
2019-04-20T11:09:27.149Z,26.3
2019-04-20T11:10:30.334Z,26.7
2019-04-20T11:11:30.014Z,26.4
2019-04-20T11:12:28.407Z,26.4
2019-04-20T11:13:27.648Z,26.2
2019-04-20T11:14:31.725Z,26.3
2019-04-20T11:15:28.231Z,26.2
2019-04-20T11:16:28.579Z,26.7
2019-04-20T11:17:29.480Z,27
2019-04-20T11:18:27.657Z,27.1
2019-04-20T11:19:27.697Z,26.2
2019-04-20T11:20:27.738Z,25.7
2019-04-20T11:21:28.222Z,26
2019-04-20T11:22:28.309Z,25.6
2019-04-20T11:23:28.632Z,25.3
2019-04-20T11:24:28.119Z,25.5
2019-04-20T11:25:28.336Z,25.9
2019-04-20T11:26:28.601Z,25.9
2019-04-20T11:27:28.125Z,26
2019-04-20T11:28:28.249Z,25.9
2019-04-20T11:29:28.499Z,25.9
2019-04-20T11:30:28.317Z,26.1
2019-04-20T11:31:36.163Z,25.8
2019-04-20T11:32:28.443Z,25.8
2019-04-20T11:33:28.423Z,25.7
2019-04-20T11:34:33.077Z,25.8
2019-04-20T11:35:34.219Z,25.7
2019-04-20T11:36:28.612Z,25.8
2019-04-20T11:37:29.032Z,26.1
2019-04-20T11:38:30.104Z,26.2
2019-04-20T11:39:29.227Z,26.1
2019-04-20T11:40:28.914Z,26.2
2019-04-20T11:41:31.962Z,26.4
2019-04-20T11:42:29.867Z,26.2
2019-04-20T11:43:29.280Z,26.1
2019-04-20T11:44:31.168Z,26
2019-04-20T11:45:29.081Z,26.3
2019-04-20T11:46:30.433Z,26.7
2019-04-20T11:47:29.630Z,26.5
2019-04-20T11:48:29.657Z,26.3
2019-04-20T11:49:29.314Z,26.2
2019-04-20T11:50:29.577Z,26.4
2019-04-20T11:51:29.802Z,26.7
2019-04-20T11:52:31.878Z,26.1
2019-04-20T11:53:30.403Z,26.1
2019-04-20T11:54:30.405Z,26.1
2019-04-20T11:55:30.674Z,25.8
2019-04-20T11:56:34.755Z,25.8
2019-04-20T11:57:29.780Z,25.8
2019-04-20T11:58:30.300Z,26.2
2019-04-20T11:59:30.555Z,26
2019-04-20T12:00:29.929Z,25.5
2019-04-20T12:01:36.523Z,25.7
2019-04-20T12:02:35.389Z,25.4
2019-04-20T12:03:39.097Z,25.1
2019-04-20T12:04:38.021Z,25.4
2019-04-20T12:05:37.091Z,25
2019-04-20T12:06:30.783Z,25.4
2019-04-20T12:07:32.261Z,25.6
2019-04-20T12:08:31.164Z,25.6
2019-04-20T12:09:31.352Z,26
2019-04-20T12:10:31.436Z,25.6
2019-04-20T12:11:40.250Z,25.3
2019-04-20T12:12:38.869Z,25.1
2019-04-20T12:13:31.019Z,25.4
2019-04-20T12:14:30.848Z,25.4
2019-04-20T12:15:33.488Z,25.6
2019-04-20T12:16:31.941Z,25.6
2019-04-20T12:17:31.428Z,25.8
2019-04-20T12:18:31.663Z,26.1
2019-04-20T12:19:31.212Z,26
2019-04-20T12:20:32.384Z,25.8
2019-04-20T12:21:31.158Z,26.2
2019-04-20T12:22:32.399Z,26.4
2019-04-20T12:23:32.108Z,26
2019-04-20T12:24:31.521Z,25.5
2019-04-20T12:25:33.202Z,25.8
2019-04-20T12:26:31.531Z,26.1
2019-04-20T12:27:32.499Z,26.2
2019-04-20T12:28:31.679Z,25.8
2019-04-20T12:29:32.108Z,25.9
2019-04-20T12:30:31.803Z,25.9
2019-04-20T12:31:31.912Z,26.1
2019-04-20T12:32:35.074Z,26
2019-04-20T12:33:32.573Z,26
2019-04-20T12:34:31.996Z,25.9
2019-04-20T12:35:32.113Z,26.5
2019-04-20T12:36:33.192Z,26.5
2019-04-20T12:37:34.113Z,26.5
2019-04-20T12:38:32.873Z,26.4
2019-04-20T12:39:33.208Z,26.6
2019-04-20T12:40:32.451Z,26.6
2019-04-20T12:41:39.362Z,26.2
2019-04-20T12:42:32.916Z,25.9
2019-04-20T12:43:33.878Z,26.2
2019-04-20T12:44:32.492Z,26.6
2019-04-20T12:45:33.537Z,27
2019-04-20T12:46:33.959Z,27.4
2019-04-20T12:47:32.625Z,26.7
2019-04-20T12:48:33.590Z,27
2019-04-20T12:49:33.641Z,26.6
2019-04-20T12:50:32.835Z,27
2019-04-20T12:51:36.550Z,26.9
2019-04-20T12:52:32.888Z,26.8
2019-04-20T12:53:34.822Z,26.6
2019-04-20T12:54:34.158Z,26.6
2019-04-20T12:55:33.055Z,26.5
2019-04-20T12:56:33.103Z,26.5
2019-04-20T12:57:34.378Z,26.3
2019-04-20T12:58:34.321Z,26.2
2019-04-20T12:59:33.664Z,26
2019-04-20T13:00:33.308Z,25.8
2019-04-20T13:01:33.369Z,25.8
2019-04-20T13:02:33.530Z,25.9
2019-04-20T13:03:33.498Z,26.4
2019-04-20T13:04:33.522Z,26.5
2019-04-20T13:05:33.876Z,26.1
2019-04-20T13:06:34.125Z,26.3
2019-04-20T13:07:39.222Z,26.7
2019-04-20T13:08:38.164Z,26.3
2019-04-20T13:09:34.610Z,26.4
2019-04-20T13:10:33.917Z,26.4
2019-04-20T13:11:44.061Z,26.1
2019-04-20T13:12:34.311Z,26.6
2019-04-20T13:13:34.529Z,26.3
2019-04-20T13:14:34.612Z,26.3
2019-04-20T13:15:34.325Z,26.8
2019-04-20T13:16:34.389Z,26.6
2019-04-20T13:17:34.490Z,26.2
2019-04-20T13:18:34.988Z,25.4
2019-04-20T13:19:35.362Z,25.8
2019-04-20T13:20:34.435Z,26.3
2019-04-20T13:21:34.829Z,26.7
2019-04-20T13:22:34.919Z,26.9
2019-04-20T13:23:35.088Z,26.8
2019-04-20T13:24:34.722Z,26.9
2019-04-20T13:25:34.989Z,26.8
2019-04-20T13:26:35.125Z,26.1
2019-04-20T13:27:34.866Z,26.5
2019-04-20T13:28:34.921Z,26.3
2019-04-20T13:29:35.158Z,26.7
2019-04-20T13:30:35.502Z,26.4
2019-04-20T13:31:35.767Z,26
2019-04-20T13:32:36.041Z,25.9
2019-04-20T13:33:35.169Z,26
2019-04-20T13:34:36.079Z,26.4
2019-04-20T13:35:36.357Z,26.2
2019-04-20T13:36:35.324Z,26.8
2019-04-20T13:37:37.079Z,27
2019-04-20T13:38:36.234Z,26.4
2019-04-20T13:39:35.516Z,25.9
2019-04-20T13:40:35.682Z,25.8
2019-04-20T13:41:35.767Z,26
2019-04-20T13:42:36.452Z,26.3
2019-04-20T13:43:35.675Z,26.7
2019-04-20T13:44:36.910Z,26.5
2019-04-20T13:45:37.036Z,26.7
2019-04-20T13:46:36.786Z,26.7
2019-04-20T13:47:36.989Z,26.8
2019-04-20T13:48:37.113Z,26.9
2019-04-20T13:49:36.778Z,26.6
2019-04-20T13:50:36.086Z,26.6
2019-04-20T13:51:36.919Z,26.1
2019-04-20T13:52:36.194Z,25.6
2019-04-20T13:53:37.108Z,26.1
2019-04-20T13:54:36.337Z,26.5
2019-04-20T13:55:36.370Z,26.8
2019-04-20T13:56:37.593Z,26.8
2019-04-20T13:57:36.638Z,26.2
2019-04-20T13:58:36.891Z,25.9
2019-04-20T13:59:37.527Z,26.1
2019-04-20T14:00:36.773Z,26.2
2019-04-20T14:01:36.967Z,26.4
2019-04-20T14:02:36.786Z,26.4
2019-04-20T14:03:36.818Z,26.8
2019-04-20T14:04:36.979Z,26.7
2019-04-20T14:05:38.193Z,26.9
2019-04-20T14:06:37.326Z,26.8
2019-04-20T14:07:37.532Z,26.5